Talbot, Indiana
Current Conditions -  °F | °C
As of 10:55 PM on Sunday 25 Jan 2015 (Local Time) from KDNV Reporting Station
Overcast Overcast  
Wind Chill: -10°   Ceiling: 1400
Heat Index: -3°   Visibility: 10mi
Dew Point: -5°   Wind: 17mph
Humidity: 87%   Direction: 20°NNE
Pressure: 29.89"   Gusts: NA
Location:  40.51°N, 87.45°W
Report Text: KDNV 260355Z AUTO 02015KT 10SM OVC014 M03/M04 A2989 RMK AO2 T10261045
Loading
Personal Weather Stations






























Interactive Weather Map New forecast layout! Learn more

10-Day Weather Forecast

Advertisements
Track Severe Weather on mobile